Fort Mchenry — WD19336 — position and weather

sailwx.info

Track history (hours):
 
Tides and Currents Weather Stations Pressure Air Temp Water Temp Dewpoint Dewpoint Depression Visibility Wind Speed Wind Dir Waves Ship Positions

Fort Mchenry

Last reported at 2017-Nov-18 11:42 UTC. Time now 2017-Nov-18 19:35 UTC.
Position N 40°33' W 074°15'.

Length 28 m; draft 4 m.

Type: Towing. MMSI: 369131000.

Date/timePositionNaut miles runAvg speedWind from/ knotsBaromVisibWave heightAir tempDewpointWater temp
2017-Nov-18 11:42N 40°33' W 074°15'0 0.2
2017-Nov-18 11:30N 40°33' W 074°15'3 3.7
2017-Nov-18 10:37N 40°35' W 074°12'1 4.3
2017-Nov-18 10:30N 40°35' W 074°13'2 2.2
2017-Nov-18 09:24N 40°33' W 074°15'0 0.0
2017-Nov-18 08:51N 40°33' W 074°15'0 0.0
2017-Nov-18 08:18N 40°33' W 074°15'0 0.0
2017-Nov-18 08:00N 40°33' W 074°15'0 0.0
2017-Nov-18 07:30N 40°33' W 074°15'0 0.0
2017-Nov-18 07:00N 40°33' W 074°15'0 0.0
2017-Nov-18 06:30N 40°33' W 074°15'0 0.0
2017-Nov-18 06:00N 40°33' W 074°15'0 0.0
2017-Nov-18 05:27N 40°33' W 074°15'0 0.0
2017-Nov-18 05:00N 40°33' W 074°15'0 0.0
2017-Nov-18 04:30N 40°33' W 074°15'0 0.0
2017-Nov-18 04:00N 40°33' W 074°15'1 0.7
2017-Nov-18 03:07N 40°33' W 074°14'0 2.7
2017-Nov-18 03:00N 40°33' W 074°14'2 3.5
2017-Nov-18 02:20N 40°35' W 074°12'2 4.5
2017-Nov-18 02:00N 40°37' W 074°12'3 5.6
2017-Nov-18 01:30N 40°39' W 074°09'4 7.3
2017-Nov-18 01:00N 40°39' W 074°05'3 6.5
2017-Nov-18 00:30N 40°41' W 074°01'1 1.6
2017-Nov-18 00:00N 40°41' W 074°00'0 0.2
2017-Nov-17 23:29N 40°41' W 074°00'0 0.0
2017-Nov-17 22:59N 40°41' W 074°00'0 0.0
2017-Nov-17 22:29N 40°41' W 074°00'0 0.0
2017-Nov-17 21:59N 40°41' W 074°00'0 0.0
2017-Nov-17 21:30N 40°41' W 074°00'4 8.3
2017-Nov-17 21:00N 40°39' W 074°05'2 3.8
2017-Nov-17 20:30N 40°39' W 074°07'5 9.5
2017-Nov-17 20:00N 40°40' W 074°01'1 1.3
2017-Nov-17 19:28N 40°40' W 074°00'0 0.0
2017-Nov-17 18:58N 40°40' W 074°00'1 1.8
2017-Nov-17 18:30N 40°40' W 074°01'5 9.7
2017-Nov-17 18:01N 40°39' W 074°07'2 3.4
2017-Nov-17 17:29N 40°40' W 074°09'0 0.4
2017-Nov-17 17:00N 40°40' W 074°08'1 2.6
2017-Nov-17 16:30N 40°41' W 074°10'0 0.0
2017-Nov-17 16:00N 40°41' W 074°10'0 0.0
2017-Nov-17 15:30N 40°41' W 074°10'0 0.0
2017-Nov-17 14:57N 40°41' W 074°10'0 0.0
2017-Nov-17 14:30N 40°41' W 074°10'0 0.0
2017-Nov-17 14:00N 40°41' W 074°10'0 0.0
2017-Nov-17 13:24N 40°41' W 074°10'0 0.0
2017-Nov-17 13:00N 40°41' W 074°10'0 0.0
2017-Nov-17 12:30N 40°41' W 074°10'0 0.0
2017-Nov-17 12:00N 40°41' W 074°10'0 0.0
2017-Nov-17 11:30N 40°41' W 074°10'0 0.8
2017-Nov-17 11:01N 40°41' W 074°09'0 0.6
2017-Nov-17 10:29N 40°41' W 074°09'0 0.0
2017-Nov-17 09:59N 40°41' W 074°09'0 0.0
2017-Nov-17 09:29N 40°41' W 074°09'0 0.0
2017-Nov-17 08:59N 40°41' W 074°09'2 4.6
2017-Nov-17 08:31N 40°39' W 074°08'2 4.4
2017-Nov-17 07:58N 40°39' W 074°05'0 0.0
2017-Nov-17 07:28N 40°39' W 074°05'0 0.1
2017-Nov-17 07:01N 40°39' W 074°05'1 1.7
2017-Nov-17 06:29N 40°40' W 074°05'0 0.0
2017-Nov-17 05:59N 40°40' W 074°05'0 0.0
2017-Nov-17 05:29N 40°40' W 074°05'0 0.0
2017-Nov-17 04:59N 40°40' W 074°05'0 0.0
2017-Nov-17 04:29N 40°40' W 074°05'0 0.0
2017-Nov-17 03:59N 40°40' W 074°05'0 0.0
2017-Nov-17 03:29N 40°40' W 074°05'0 0.0
2017-Nov-17 02:59N 40°40' W 074°05'1 2.2
2017-Nov-17 02:30N 40°39' W 074°04'1 1.5
2017-Nov-17 02:00N 40°39' W 074°05'0 0.8
2017-Nov-17 01:31N 40°39' W 074°05'1 1.5
2017-Nov-17 00:57N 40°39' W 074°06'0 0.0
2017-Nov-17 00:30N 40°39' W 074°06'1 1.2
2017-Nov-16 23:58N 40°39' W 074°07'1 2.6
2017-Nov-16 23:30N 40°39' W 074°08'2 4.5
2017-Nov-16 23:00N 40°41' W 074°09'0 0.3
2017-Nov-16 22:28N 40°41' W 074°09'2 5.0
2017-Nov-16 22:00N 40°39' W 074°08'2 3.6
2017-Nov-16 21:28N 40°39' W 074°06'0 0.0
2017-Nov-16 20:58N 40°39' W 074°06'0 0.0
2017-Nov-16 20:29N 40°39' W 074°06'4 8.4
2017-Nov-16 20:00N 40°41' W 074°01'2 3.7
2017-Nov-16 19:30N 40°40' W 074°03'2 4.6
2017-Nov-16 19:00N 40°39' W 074°06'1 1.0
2017-Nov-16 18:30N 40°39' W 074°06'0 0.6
2017-Nov-16 18:00N 40°39' W 074°07'2 4.6
2017-Nov-16 17:30N 40°40' W 074°04'0 0.5
2017-Nov-16 17:00N 40°40' W 074°04'1 2.0
2017-Nov-16 16:30N 40°40' W 074°03'3 4.6
2017-Nov-16 15:58N 40°38' W 074°04'1 1.8
2017-Nov-16 15:30N 40°38' W 074°03'2 4.7
2017-Nov-16 14:59N 40°40' W 074°00'2 3.5
2017-Nov-16 14:28N 40°40' W 074°03'1 2.6
2017-Nov-16 14:00N 40°39' W 074°03'0 0.3
2017-Nov-16 13:30N 40°39' W 074°03'1 2.6
2017-Nov-16 13:01N 40°41' W 074°03'4 7.4
2017-Nov-16 12:31N 40°39' W 074°07'3 5.1
2017-Nov-16 12:01N 40°41' W 074°09'0 0.2
2017-Nov-16 11:25N 40°41' W 074°09'0 0.0
2017-Nov-16 10:55N 40°41' W 074°09'0 0.0
2017-Nov-16 10:28N 40°41' W 074°09'0 0.6
2017-Nov-16 09:59N 40°41' W 074°09'0 0.0
2017-Nov-16 09:29N 40°41' W 074°09'0 0.0
2017-Nov-16 08:56N 40°41' W 074°09'0 0.0
2017-Nov-16 08:29N 40°41' W 074°09'0 0.4
2017-Nov-16 08:00N 40°41' W 074°09'3 5.8
2017-Nov-16 07:30N 40°39' W 074°06'3 5.1
2017-Nov-16 06:58N 40°40' W 074°03'2 3.8
2017-Nov-16 06:31N 40°39' W 074°04'4 7.5
2017-Nov-16 06:01N 40°39' W 074°09'1 2.4
2017-Nov-16 05:25N 40°39' W 074°11'0 0.0
2017-Nov-16 05:01N 40°39' W 074°11'3 5.8
2017-Nov-16 04:30N 40°41' W 074°09'0 0.4
2017-Nov-16 03:52N 40°41' W 074°10'0 0.0
2017-Nov-16 03:28N 40°41' W 074°10'0 0.0
2017-Nov-16 03:01N 40°41' W 074°10'1 2.5
2017-Nov-16 02:30N 40°40' W 074°08'0 0.6
2017-Nov-16 02:00N 40°40' W 074°08'2 3.4
2017-Nov-16 01:30N 40°39' W 074°08'2 3.9
2017-Nov-16 00:58N 40°39' W 074°05'1 1.5
2017-Nov-16 00:31N 40°39' W 074°04'1 1.3
2017-Nov-16 00:01N 40°40' W 074°04'0 0.0
2017-Nov-15 23:30N 40°40' W 074°04'0 0.0
2017-Nov-15 23:00N 40°40' W 074°04'0 0.7
2017-Nov-15 22:30N 40°40' W 074°04'2 3.2
2017-Nov-15 22:00N 40°39' W 074°02'1 1.1
2017-Nov-15 21:31N 40°39' W 074°02'4 6.9
2017-Nov-15 21:00N 40°39' W 074°06'2 3.3
2017-Nov-15 20:30N 40°39' W 074°08'2 4.5
2017-Nov-15 20:00N 40°41' W 074°09'0 0.9
2017-Nov-15 19:30N 40°41' W 074°09'3 5.7
2017-Nov-15 19:00N 40°39' W 074°07'1 2.8
2017-Nov-15 18:30N 40°39' W 074°09'1 2.2
2017-Nov-15 17:58N 40°40' W 074°09'0 0.1
2017-Nov-15 17:30N 40°40' W 074°09'2 3.0
2017-Nov-15 16:58N 40°41' W 074°09'0 0.0
2017-Nov-15 16:28N 40°41' W 074°09'0 0.0
2017-Nov-15 15:58N 40°41' W 074°09'0 0.0
2017-Nov-15 15:19N 40°41' W 074°09'0 0.0
2017-Nov-15 14:43N 40°41' W 074°09'0 0.0
2017-Nov-15 14:25N 40°41' W 074°09'0 0.0
2017-Nov-15 13:55N 40°41' W 074°09'0 0.0
2017-Nov-15 13:25N 40°41' W 074°09'0 0.0
2017-Nov-15 12:58N 40°41' W 074°09'0 0.0
2017-Nov-15 12:28N 40°41' W 074°09'0 0.0
2017-Nov-15 11:55N 40°41' W 074°09'0 0.1
2017-Nov-15 11:30N 40°41' W 074°09'3 5.5
2017-Nov-15 11:00N 40°39' W 074°09'1 2.9
2017-Nov-15 10:30N 40°39' W 074°07'1 1.7
2017-Nov-15 09:59N 40°39' W 074°06'0 0.0
2017-Nov-15 09:29N 40°39' W 074°06'0 0.0
2017-Nov-15 08:59N 40°39' W 074°06'0 0.0
2017-Nov-15 08:29N 40°39' W 074°06'0 0.0
2017-Nov-15 07:59N 40°39' W 074°06'0 0.7
2017-Nov-15 07:30N 40°39' W 074°06'1 3.0
2017-Nov-15 07:00N 40°39' W 074°08'1 2.9
2017-Nov-15 06:30N 40°39' W 074°10'2 4.0
2017-Nov-15 05:59N 40°38' W 074°07'0 0.0
2017-Nov-15 05:29N 40°38' W 074°07'0 0.0
2017-Nov-15 04:59N 40°38' W 074°07'0 0.0
2017-Nov-15 04:29N 40°38' W 074°07'0 0.0
2017-Nov-15 03:56N 40°38' W 074°07'0 0.0
2017-Nov-15 03:23N 40°38' W 074°07'1 1.8
2017-Nov-15 02:59N 40°39' W 074°07'3 7.2
2017-Nov-15 02:30N 40°39' W 074°02'1 2.7
2017-Nov-15 01:59N 40°40' W 074°00'2 3.9
2017-Nov-15 01:30N 40°39' W 074°02'2 4.5
2017-Nov-15 00:58N 40°40' W 074°05'0 0.0
2017-Nov-15 00:28N 40°40' W 074°05'0 0.0
2017-Nov-14 23:58N 40°40' W 074°05'0 0.0
2017-Nov-14 23:28N 40°40' W 074°05'0 0.7
2017-Nov-14 23:00N 40°40' W 074°05'0 0.6
2017-Nov-14 22:30N 40°40' W 074°04'2 3.8
2017-Nov-14 22:00N 40°39' W 074°06'1 1.2
2017-Nov-14 21:29N 40°39' W 074°07'0 0.0
2017-Nov-14 20:56N 40°39' W 074°07'1 2.1
2017-Nov-14 20:28N 40°39' W 074°06'0 0.0
2017-Nov-14 19:58N 40°39' W 074°06'2 5.0
2017-Nov-14 19:30N 40°39' W 074°09'2 3.5
2017-Nov-14 19:00N 40°41' W 074°09'0 0.1
2017-Nov-14 18:27N 40°41' W 074°09'1 2.1
2017-Nov-14 18:01N 40°40' W 074°08'2 3.7
2017-Nov-14 17:31N 40°39' W 074°07'0 0.3
2017-Nov-14 17:00N 40°39' W 074°06'1 1.1
2017-Nov-14 16:29N 40°39' W 074°06'0 0.0
2017-Nov-14 15:59N 40°39' W 074°06'0 0.0
2017-Nov-14 15:26N 40°39' W 074°06'2 5.0
2017-Nov-14 15:01N 40°38' W 074°09'1 2.5
2017-Nov-14 14:30N 40°40' W 074°09'0 0.7
2017-Nov-14 14:00N 40°39' W 074°09'2 3.5
2017-Nov-14 13:30N 40°39' W 074°06'3 6.2
2017-Nov-14 13:01N 40°40' W 074°03'1 2.2
2017-Nov-14 12:31N 40°40' W 074°01'1 1.9
2017-Nov-14 11:59N 40°40' W 074°00'0 0.0
2017-Nov-14 11:29N 40°40' W 074°00'1 1.3
2017-Nov-14 11:00N 40°40' W 074°01'4 6.7
2017-Nov-14 10:26N 40°39' W 074°06'0 0.0
2017-Nov-14 09:56N 40°39' W 074°06'0 0.0
2017-Nov-14 09:26N 40°39' W 074°06'0 0.0
2017-Nov-14 08:59N 40°39' W 074°06'0 0.0
2017-Nov-14 08:29N 40°39' W 074°06'0 0.0
2017-Nov-14 07:59N 40°39' W 074°06'0 0.0
2017-Nov-14 07:29N 40°39' W 074°06'0 0.0
2017-Nov-14 06:59N 40°39' W 074°06'0 0.0
2017-Nov-14 06:29N 40°39' W 074°06'0 0.0
2017-Nov-14 05:59N 40°39' W 074°06'0 0.0
2017-Nov-14 05:29N 40°39' W 074°06'0 0.8
2017-Nov-14 05:01N 40°39' W 074°06'0 0.4
2017-Nov-14 04:30N 40°39' W 074°06'1 1.2
2017-Nov-14 03:55N 40°38' W 074°07'0 0.0
2017-Nov-14 03:25N 40°38' W 074°07'0 0.0
2017-Nov-14 02:55N 40°38' W 074°07'0 0.0
2017-Nov-14 02:25N 40°38' W 074°07'0 0.0
2017-Nov-14 01:55N 40°38' W 074°07'0 0.0
2017-Nov-14 01:13N 40°38' W 074°07'0 0.0
2017-Nov-14 00:55N 40°38' W 074°07'0 0.0
2017-Nov-14 00:25N 40°38' W 074°07'0 0.0
2017-Nov-13 23:55N 40°38' W 074°07'2 3.5
2017-Nov-13 23:30N 40°39' W 074°09'0 0.8
2017-Nov-13 22:56N 40°40' W 074°09'0 0.0
2017-Nov-13 22:29N 40°40' W 074°09'0 0.5
2017-Nov-13 22:00N 40°40' W 074°09'5 0.3
2017-Nov-13 02:00N 40°39' W 074°02'0 0.8
2017-Nov-13 01:31N 40°39' W 074°02'1 2.7
2017-Nov-13 01:00N 40°40' W 074°00'0 0.0
2017-Nov-13 00:30N 40°40' W 074°00'0 0.0
2017-Nov-13 00:00N 40°40' W 074°00'0 0.0
2017-Nov-12 23:30N 40°40' W 074°00'0 0.0
2017-Nov-12 23:00N 40°40' W 074°00'0 0.0
2017-Nov-12 22:30N 40°40' W 074°00'3 6.8
2017-Nov-12 22:00N 40°38' W 074°04'0 0.1
2017-Nov-12 21:30N 40°38' W 074°04'1 2.1
2017-Nov-12 21:00N 40°39' W 074°03'3 5.0
2017-Nov-12 20:28N 40°41' W 074°01'0 0.1
2017-Nov-12 20:00N 40°41' W 074°01'1 1.3
2017-Nov-12 19:30N 40°42' W 074°00'4 7.3
2017-Nov-12 19:00N 40°45' W 074°01'1 2.0
2017-Nov-12 18:26N 40°46' W 073°60'0 0.0
2017-Nov-12 17:59N 40°46' W 073°60'0 0.0
2017-Nov-12 17:29N 40°46' W 073°60'0 0.0
2017-Nov-12 16:56N 40°46' W 073°60'0 0.0
2017-Nov-12 16:29N 40°46' W 073°60'0 0.0
2017-Nov-12 15:59N 40°46' W 073°60'0 0.0
2017-Nov-12 15:30N 40°46' W 073°60'0 0.1
2017-Nov-12 14:59N 40°46' W 073°60'0 0.0
2017-Nov-12 14:29N 40°46' W 073°60'0 0.0
2017-Nov-12 13:59N 40°46' W 073°60'0 0.0
2017-Nov-12 13:29N 40°46' W 073°60'0 0.0
2017-Nov-12 12:59N 40°46' W 073°60'0 0.3
2017-Nov-12 12:29N 40°46' W 074°00'2 3.5
2017-Nov-12 12:00N 40°45' W 074°01'4 7.5
2017-Nov-12 11:30N 40°41' W 074°02'3 5.1
2017-Nov-12 10:58N 40°39' W 074°05'0 0.0
2017-Nov-12 10:28N 40°39' W 074°05'0 0.0
2017-Nov-12 09:58N 40°39' W 074°05'0 0.0
2017-Nov-12 09:28N 40°39' W 074°05'0 0.0
2017-Nov-12 08:58N 40°39' W 074°05'0 0.0
2017-Nov-12 08:30N 40°39' W 074°05'1 1.7
2017-Nov-12 07:58N 40°40' W 074°05'0 0.0
2017-Nov-12 07:28N 40°40' W 074°05'0 0.0
2017-Nov-12 06:58N 40°40' W 074°05'0 0.0
2017-Nov-12 06:28N 40°40' W 074°05'0 0.0
2017-Nov-12 05:58N 40°40' W 074°05'0 0.0
2017-Nov-12 05:28N 40°40' W 074°05'0 0.0
2017-Nov-12 04:58N 40°40' W 074°05'0 0.0
2017-Nov-12 04:28N 40°40' W 074°05'0 0.0
2017-Nov-12 03:59N 40°40' W 074°05'1 2.5
2017-Nov-12 03:29N 40°39' W 074°05'0 0.0
2017-Nov-12 02:56N 40°39' W 074°05'0 0.0
2017-Nov-12 02:29N 40°39' W 074°05'0 0.0
2017-Nov-12 01:59N 40°39' W 074°05'0 0.0
2017-Nov-12 01:30N 40°39' W 074°05'0 0.7
2017-Nov-12 00:58N 40°39' W 074°06'0 0.0
2017-Nov-12 00:25N 40°39' W 074°06'0 0.0
2017-Nov-11 23:58N 40°39' W 074°06'0 0.0
2017-Nov-11 23:29N 40°39' W 074°06'1 1.5
2017-Nov-11 22:59N 40°39' W 074°05'1 1.9
2017-Nov-11 22:27N 40°40' W 074°04'0 0.0
2017-Nov-11 22:00N 40°40' W 074°04'0 0.0
2017-Nov-11 21:30N 40°40' W 074°04'1 2.1
2017-Nov-11 21:00N 40°40' W 074°03'1 2.8
2017-Nov-11 20:28N 40°39' W 074°03'1 1.2
2017-Nov-11 20:00N 40°39' W 074°03'2 3.1
2017-Nov-11 19:30N 40°39' W 074°05'2 4.6
2017-Nov-11 19:00N 40°40' W 074°03'0 0.1
2017-Nov-11 18:30N 40°40' W 074°03'1 2.2
2017-Nov-11 18:00N 40°40' W 074°04'2 3.6
2017-Nov-11 17:29N 40°38' W 074°03'0 0.7
2017-Nov-11 16:58N 40°39' W 074°03'1 2.3
2017-Nov-11 16:30N 40°39' W 074°02'2 4.3
2017-Nov-11 16:00N 40°41' W 074°00'0 0.3
2017-Nov-11 15:29N 40°41' W 074°00'1 2.5
2017-Nov-11 15:00N 40°41' W 074°01'1 2.0
2017-Nov-11 14:30N 40°40' W 074°00'0 0.0
2017-Nov-11 14:00N 40°40' W 074°00'2 4.1
2017-Nov-11 13:31N 40°40' W 074°03'1 2.0
2017-Nov-11 13:01N 40°40' W 074°04'1 1.7
2017-Nov-11 12:30N 40°40' W 074°05'0 0.5
2017-Nov-11 11:58N 40°40' W 074°04'1 3.0
2017-Nov-11 11:30N 40°39' W 074°05'1 1.3
2017-Nov-11 11:00N 40°39' W 074°06'4 8.6
2017-Nov-11 10:30N 40°40' W 074°01'0 0.5
2017-Nov-11 09:59N 40°40' W 074°00'0 0.0
2017-Nov-11 09:29N 40°40' W 074°00'0 0.0
2017-Nov-11 08:59N 40°40' W 074°01'0 0.0
2017-Nov-11 08:29N 40°40' W 074°01'0 0.3
2017-Nov-11 08:01N 40°40' W 074°01'3 6.3
2017-Nov-11 07:30N 40°43' W 073°59'4 7.9
2017-Nov-11 07:00N 40°46' W 073°57'3 6.7
2017-Nov-11 06:30N 40°48' W 073°53'3 5.3
2017-Nov-11 05:53N 40°48' W 073°48'0 0.0
2017-Nov-11 04:47N 40°48' W 073°48'0 0.0
2017-Nov-11 04:29N 40°48' W 073°48'0 0.0
2017-Nov-11 03:47N 40°48' W 073°48'0 0.1
2017-Nov-11 03:29N 40°48' W 073°48'0 0.0
2017-Nov-11 02:59N 40°48' W 073°48'0 0.0
2017-Nov-11 02:29N 40°48' W 073°48'0 0.0
2017-Nov-11 01:56N 40°48' W 073°48'0 0.0
2017-Nov-10 20:23N 40°48' W 073°48'0 0.1
2017-Nov-10 19:56N 40°48' W 073°48'0 0.0
2017-Nov-10 19:20N 40°48' W 073°48'0 0.0
2017-Nov-10 18:53N 40°48' W 073°48'0 0.0
2017-Nov-10 17:11N 40°48' W 073°48'0 0.0
2017-Nov-10 16:59N 40°48' W 073°48'0 0.0
2017-Nov-10 15:59N 40°48' W 073°48'0 0.0
2017-Nov-10 15:26N 40°48' W 073°48'0 0.1
2017-Nov-10 14:59N 40°48' W 073°48'0 0.1
2017-Nov-10 14:20N 40°48' W 073°48'2 6.6
2017-Nov-10 14:00N 40°48' W 073°51'3 6.3
2017-Nov-10 13:30N 40°47' W 073°55'3 5.2
2017-Nov-10 13:00N 40°45' W 073°58'3 5.5
2017-Nov-10 12:30N 40°43' W 073°59'3 5.1
2017-Nov-10 12:00N 40°41' W 074°01'3 5.0
2017-Nov-10 11:30N 40°39' W 074°03'4 7.6
2017-Nov-10 11:00N 40°39' W 074°08'2 4.9
2017-Nov-10 10:31N 40°38' W 074°11'2 4.7
2017-Nov-10 10:00N 40°36' W 074°12'1 2.2
2017-Nov-10 09:21N 40°38' W 074°12'0 1.3
2017-Nov-10 09:00N 40°38' W 074°12'4 7.9
2017-Nov-10 08:30N 40°39' W 074°07'4 7.3
2017-Nov-10 08:00N 40°40' W 074°03'2 3.9
2017-Nov-10 07:28N 40°41' W 074°00'0 0.2
2017-Nov-10 06:58N 40°41' W 074°00'1 2.9
2017-Nov-10 06:28N 40°40' W 074°00'1 2.1
2017-Nov-10 06:00N 40°39' W 074°01'1 1.7
2017-Nov-10 05:30N 40°39' W 074°02'1 2.9
2017-Nov-10 05:00N 40°40' W 074°01'0 0.7
2017-Nov-10 04:31N 40°40' W 074°00'1 0.9
2017-Nov-10 03:59N 40°40' W 074°01'2 4.5
2017-Nov-10 03:30N 40°39' W 074°04'4 7.6
2017-Nov-10 03:00N 40°39' W 074°08'3 5.2
2017-Nov-10 02:30N 40°41' W 074°09'0 0.5
2017-Nov-10 02:00N 40°41' W 074°09'1 0.9
2017-Nov-10 01:24N 40°41' W 074°09'0 0.0
2017-Nov-10 01:00N 40°41' W 074°09'0 0.0
2017-Nov-10 00:30N 40°41' W 074°09'0 0.0
2017-Nov-09 23:57N 40°41' W 074°09'0 0.0
2017-Nov-09 23:30N 40°41' W 074°09'0 0.0
2017-Nov-09 23:00N 40°41' W 074°09'3 5.5
2017-Nov-09 22:30N 40°39' W 074°11'3 5.5
2017-Nov-09 21:59N 40°36' W 074°12'0 0.8
2017-Nov-09 21:30N 40°36' W 074°12'3 5.8
2017-Nov-09 21:00N 40°39' W 074°11'3 5.5
2017-Nov-09 20:30N 40°40' W 074°08'1 1.8
2017-Nov-09 20:01N 40°39' W 074°09'3 5.0
2017-Nov-09 19:30N 40°39' W 074°05'3 6.9
2017-Nov-09 19:00N 40°41' W 074°02'3 6.9
2017-Nov-09 18:30N 40°43' W 073°58'3 6.6
2017-Nov-09 18:00N 40°46' W 073°57'3 5.1
2017-Nov-09 17:30N 40°48' W 073°54'2 4.4
2017-Nov-09 17:00N 40°48' W 073°51'3 6.5
2017-Nov-09 16:30N 40°48' W 073°47'4 7.7
2017-Nov-09 15:57N 40°52' W 073°45'4 5.3
2017-Nov-09 15:16N 40°54' W 073°41'8 4.6
2017-Nov-09 13:35N 40°48' W 073°47'1 8.3
2017-Nov-09 13:30N 40°48' W 073°48'4 7.9
2017-Nov-09 12:59N 40°48' W 073°54'3 6.5
2017-Nov-09 12:30N 40°46' W 073°57'3 5.5
2017-Nov-09 12:01N 40°44' W 073°58'3 5.2
2017-Nov-09 11:31N 40°42' W 074°00'3 5.6
2017-Nov-09 11:00N 40°40' W 074°03'3 5.6
2017-Nov-09 10:29N 40°39' W 074°07'0 0.2
2017-Nov-09 10:01N 40°39' W 074°07'0 0.0
2017-Nov-09 09:30N 40°39' W 074°07'1 2.9
2017-Nov-09 09:00N 40°39' W 074°05'4 7.2
2017-Nov-09 08:30N 40°40' W 074°00'0 0.0
2017-Nov-09 08:00N 40°40' W 074°00'0 0.5
2017-Nov-09 07:30N 40°40' W 074°00'1 1.8
2017-Nov-09 07:00N 40°39' W 074°01'4 8.1
2017-Nov-09 06:30N 40°39' W 074°07'0 0.1
2017-Nov-09 06:00N 40°39' W 074°07'2 4.9
2017-Nov-09 05:31N 40°40' W 074°04'3 6.1
2017-Nov-09 05:00N 40°41' W 074°00'3 6.2
2017-Nov-09 04:30N 40°40' W 074°04'4 8.0
2017-Nov-09 04:00N 40°39' W 074°09'2 4.9
2017-Nov-09 03:30N 40°41' W 074°08'1 1.6
2017-Nov-09 03:00N 40°41' W 074°08'0 0.4
2017-Nov-09 02:30N 40°40' W 074°08'2 3.7
2017-Nov-09 02:01N 40°39' W 074°09'3 5.8
2017-Nov-09 01:30N 40°39' W 074°05'0 0.0
2017-Nov-09 01:00N 40°39' W 074°05'0 0.0
2017-Nov-09 00:30N 40°39' W 074°05'0 0.0
2017-Nov-09 00:01N 40°39' W 074°05'1 2.4
2017-Nov-08 23:31N 40°39' W 074°07'0 0.2
2017-Nov-08 23:00N 40°39' W 074°07'3 6.1
2017-Nov-08 22:31N 40°40' W 074°03'0 0.2
2017-Nov-08 22:00N 40°40' W 074°03'2 3.8
2017-Nov-08 21:30N 40°40' W 074°00'0 0.0
2017-Nov-08 21:00N 40°40' W 074°00'0 0.0
2017-Nov-08 20:30N 40°40' W 074°00'0 0.0
2017-Nov-08 20:00N 40°40' W 074°00'0 0.0
2017-Nov-08 19:30N 40°40' W 074°00'0 0.0
2017-Nov-08 19:00N 40°40' W 074°00'0 0.0
2017-Nov-08 18:30N 40°40' W 074°00'0 0.0
2017-Nov-08 18:00N 40°40' W 074°00'0 0.0
2017-Nov-08 17:30N 40°40' W 074°00'0 0.0
2017-Nov-08 17:01N 40°40' W 074°00'0 0.6
2017-Nov-08 16:30N 40°40' W 074°00'0 0.0
2017-Nov-08 16:00N 40°40' W 074°00'0 0.0
2017-Nov-08 15:30N 40°40' W 074°00'0 0.0
2017-Nov-08 15:00N 40°40' W 074°00'0 0.0
2017-Nov-08 14:30N 40°40' W 074°00'2 4.7
2017-Nov-08 14:00N 40°42' W 073°59'4 8.4
2017-Nov-08 13:30N 40°46' W 073°57'4 7.5
2017-Nov-08 12:59N 40°48' W 073°52'  
Track history (hours):
 
Tides and Currents Weather Stations Pressure Air Temp Water Temp Dewpoint Dewpoint Depression Visibility Wind Speed Wind Dir Waves Ship Positions

Fort Mchenry

Last reported at 2017-Nov-18 11:42 UTC. Time now 2017-Nov-18 19:35 UTC.
Position N 40°33' W 074°15'.

Length 28 m; draft 4 m.

Type: Towing. MMSI: 369131000.

Date/timePositionNaut miles runAvg speedWind from/ knotsBaromVisibWave heightAir tempDewpointWater temp
2017-Nov-18 11:42N 40°33' W 074°15'0 0.2
2017-Nov-18 11:30N 40°33' W 074°15'3 3.7
2017-Nov-18 10:37N 40°35' W 074°12'1 4.3
2017-Nov-18 10:30N 40°35' W 074°13'2 2.2
2017-Nov-18 09:24N 40°33' W 074°15'0 0.0
2017-Nov-18 08:51N 40°33' W 074°15'0 0.0
2017-Nov-18 08:18N 40°33' W 074°15'0 0.0
2017-Nov-18 08:00N 40°33' W 074°15'0 0.0
2017-Nov-18 07:30N 40°33' W 074°15'0 0.0
2017-Nov-18 07:00N 40°33' W 074°15'0 0.0
2017-Nov-18 06:30N 40°33' W 074°15'0 0.0
2017-Nov-18 06:00N 40°33' W 074°15'0 0.0
2017-Nov-18 05:27N 40°33' W 074°15'0 0.0
2017-Nov-18 05:00N 40°33' W 074°15'0 0.0
2017-Nov-18 04:30N 40°33' W 074°15'0 0.0
2017-Nov-18 04:00N 40°33' W 074°15'1 0.7
2017-Nov-18 03:07N 40°33' W 074°14'0 2.7
2017-Nov-18 03:00N 40°33' W 074°14'2 3.5
2017-Nov-18 02:20N 40°35' W 074°12'2 4.5
2017-Nov-18 02:00N 40°37' W 074°12'3 5.6
2017-Nov-18 01:30N 40°39' W 074°09'4 7.3
2017-Nov-18 01:00N 40°39' W 074°05'3 6.5
2017-Nov-18 00:30N 40°41' W 074°01'1 1.6
2017-Nov-18 00:00N 40°41' W 074°00'0 0.2
2017-Nov-17 23:29N 40°41' W 074°00'0 0.0
2017-Nov-17 22:59N 40°41' W 074°00'0 0.0
2017-Nov-17 22:29N 40°41' W 074°00'0 0.0
2017-Nov-17 21:59N 40°41' W 074°00'0 0.0
2017-Nov-17 21:30N 40°41' W 074°00'4 8.3
2017-Nov-17 21:00N 40°39' W 074°05'2 3.8
2017-Nov-17 20:30N 40°39' W 074°07'5 9.5
2017-Nov-17 20:00N 40°40' W 074°01'1 1.3
2017-Nov-17 19:28N 40°40' W 074°00'0 0.0
2017-Nov-17 18:58N 40°40' W 074°00'1 1.8
2017-Nov-17 18:30N 40°40' W 074°01'5 9.7
2017-Nov-17 18:01N 40°39' W 074°07'2 3.4
2017-Nov-17 17:29N 40°40' W 074°09'0 0.4
2017-Nov-17 17:00N 40°40' W 074°08'1 2.6
2017-Nov-17 16:30N 40°41' W 074°10'0 0.0
2017-Nov-17 16:00N 40°41' W 074°10'0 0.0
2017-Nov-17 15:30N 40°41' W 074°10'0 0.0
2017-Nov-17 14:57N 40°41' W 074°10'0 0.0
2017-Nov-17 14:30N 40°41' W 074°10'0 0.0
2017-Nov-17 14:00N 40°41' W 074°10'0 0.0
2017-Nov-17 13:24N 40°41' W 074°10'0 0.0
2017-Nov-17 13:00N 40°41' W 074°10'0 0.0
2017-Nov-17 12:30N 40°41' W 074°10'0 0.0
2017-Nov-17 12:00N 40°41' W 074°10'0 0.0
2017-Nov-17 11:30N 40°41' W 074°10'0 0.8
2017-Nov-17 11:01N 40°41' W 074°09'0 0.6
2017-Nov-17 10:29N 40°41' W 074°09'0 0.0
2017-Nov-17 09:59N 40°41' W 074°09'0 0.0
2017-Nov-17 09:29N 40°41' W 074°09'0 0.0
2017-Nov-17 08:59N 40°41' W 074°09'2 4.6
2017-Nov-17 08:31N 40°39' W 074°08'2 4.4
2017-Nov-17 07:58N 40°39' W 074°05'0 0.0
2017-Nov-17 07:28N 40°39' W 074°05'0 0.1
2017-Nov-17 07:01N 40°39' W 074°05'1 1.7
2017-Nov-17 06:29N 40°40' W 074°05'0 0.0
2017-Nov-17 05:59N 40°40' W 074°05'0 0.0
2017-Nov-17 05:29N 40°40' W 074°05'0 0.0
2017-Nov-17 04:59N 40°40' W 074°05'0 0.0
2017-Nov-17 04:29N 40°40' W 074°05'0 0.0
2017-Nov-17 03:59N 40°40' W 074°05'0 0.0
2017-Nov-17 03:29N 40°40' W 074°05'0 0.0
2017-Nov-17 02:59N 40°40' W 074°05'1 2.2
2017-Nov-17 02:30N 40°39' W 074°04'1 1.5
2017-Nov-17 02:00N 40°39' W 074°05'0 0.8
2017-Nov-17 01:31N 40°39' W 074°05'1 1.5
2017-Nov-17 00:57N 40°39' W 074°06'0 0.0
2017-Nov-17 00:30N 40°39' W 074°06'1 1.2
2017-Nov-16 23:58N 40°39' W 074°07'1 2.6
2017-Nov-16 23:30N 40°39' W 074°08'2 4.5
2017-Nov-16 23:00N 40°41' W 074°09'0 0.3
2017-Nov-16 22:28N 40°41' W 074°09'2 5.0
2017-Nov-16 22:00N 40°39' W 074°08'2 3.6
2017-Nov-16 21:28N 40°39' W 074°06'0 0.0
2017-Nov-16 20:58N 40°39' W 074°06'0 0.0
2017-Nov-16 20:29N 40°39' W 074°06'4 8.4
2017-Nov-16 20:00N 40°41' W 074°01'2 3.7
2017-Nov-16 19:30N 40°40' W 074°03'2 4.6
2017-Nov-16 19:00N 40°39' W 074°06'1 1.0
2017-Nov-16 18:30N 40°39' W 074°06'0 0.6
2017-Nov-16 18:00N 40°39' W 074°07'2 4.6
2017-Nov-16 17:30N 40°40' W 074°04'0 0.5
2017-Nov-16 17:00N 40°40' W 074°04'1 2.0
2017-Nov-16 16:30N 40°40' W 074°03'3 4.6
2017-Nov-16 15:58N 40°38' W 074°04'1 1.8
2017-Nov-16 15:30N 40°38' W 074°03'2 4.7
2017-Nov-16 14:59N 40°40' W 074°00'2 3.5
2017-Nov-16 14:28N 40°40' W 074°03'1 2.6
2017-Nov-16 14:00N 40°39' W 074°03'0 0.3
2017-Nov-16 13:30N 40°39' W 074°03'1 2.6
2017-Nov-16 13:01N 40°41' W 074°03'4 7.4
2017-Nov-16 12:31N 40°39' W 074°07'3 5.1
2017-Nov-16 12:01N 40°41' W 074°09'0 0.2
2017-Nov-16 11:25N 40°41' W 074°09'0 0.0
2017-Nov-16 10:55N 40°41' W 074°09'0 0.0
2017-Nov-16 10:28N 40°41' W 074°09'0 0.6
2017-Nov-16 09:59N 40°41' W 074°09'0 0.0
2017-Nov-16 09:29N 40°41' W 074°09'0 0.0
2017-Nov-16 08:56N 40°41' W 074°09'0 0.0
2017-Nov-16 08:29N 40°41' W 074°09'0 0.4
2017-Nov-16 08:00N 40°41' W 074°09'3 5.8
2017-Nov-16 07:30N 40°39' W 074°06'3 5.1
2017-Nov-16 06:58N 40°40' W 074°03'2 3.8
2017-Nov-16 06:31N 40°39' W 074°04'4 7.5
2017-Nov-16 06:01N 40°39' W 074°09'1 2.4
2017-Nov-16 05:25N 40°39' W 074°11'0 0.0
2017-Nov-16 05:01N 40°39' W 074°11'3 5.8
2017-Nov-16 04:30N 40°41' W 074°09'0 0.4
2017-Nov-16 03:52N 40°41' W 074°10'0 0.0
2017-Nov-16 03:28N 40°41' W 074°10'0 0.0
2017-Nov-16 03:01N 40°41' W 074°10'1 2.5
2017-Nov-16 02:30N 40°40' W 074°08'0 0.6
2017-Nov-16 02:00N 40°40' W 074°08'2 3.4
2017-Nov-16 01:30N 40°39' W 074°08'2 3.9
2017-Nov-16 00:58N 40°39' W 074°05'1 1.5
2017-Nov-16 00:31N 40°39' W 074°04'1 1.3
2017-Nov-16 00:01N 40°40' W 074°04'0 0.0
2017-Nov-15 23:30N 40°40' W 074°04'0 0.0
2017-Nov-15 23:00N 40°40' W 074°04'0 0.7
2017-Nov-15 22:30N 40°40' W 074°04'2 3.2
2017-Nov-15 22:00N 40°39' W 074°02'1 1.1
2017-Nov-15 21:31N 40°39' W 074°02'4 6.9
2017-Nov-15 21:00N 40°39' W 074°06'2 3.3
2017-Nov-15 20:30N 40°39' W 074°08'2 4.5
2017-Nov-15 20:00N 40°41' W 074°09'0 0.9
2017-Nov-15 19:30N 40°41' W 074°09'3 5.7
2017-Nov-15 19:00N 40°39' W 074°07'1 2.8
2017-Nov-15 18:30N 40°39' W 074°09'1 2.2
2017-Nov-15 17:58N 40°40' W 074°09'0 0.1
2017-Nov-15 17:30N 40°40' W 074°09'2 3.0
2017-Nov-15 16:58N 40°41' W 074°09'0 0.0
2017-Nov-15 16:28N 40°41' W 074°09'0 0.0
2017-Nov-15 15:58N 40°41' W 074°09'0 0.0
2017-Nov-15 15:19N 40°41' W 074°09'0 0.0
2017-Nov-15 14:43N 40°41' W 074°09'0 0.0
2017-Nov-15 14:25N 40°41' W 074°09'0 0.0
2017-Nov-15 13:55N 40°41' W 074°09'0 0.0
2017-Nov-15 13:25N 40°41' W 074°09'0 0.0
2017-Nov-15 12:58N 40°41' W 074°09'0 0.0
2017-Nov-15 12:28N 40°41' W 074°09'0 0.0
2017-Nov-15 11:55N 40°41' W 074°09'0 0.1
2017-Nov-15 11:30N 40°41' W 074°09'3 5.5
2017-Nov-15 11:00N 40°39' W 074°09'1 2.9
2017-Nov-15 10:30N 40°39' W 074°07'1 1.7
2017-Nov-15 09:59N 40°39' W 074°06'0 0.0
2017-Nov-15 09:29N 40°39' W 074°06'0 0.0
2017-Nov-15 08:59N 40°39' W 074°06'0 0.0
2017-Nov-15 08:29N 40°39' W 074°06'0 0.0
2017-Nov-15 07:59N 40°39' W 074°06'0 0.7
2017-Nov-15 07:30N 40°39' W 074°06'1 3.0
2017-Nov-15 07:00N 40°39' W 074°08'1 2.9
2017-Nov-15 06:30N 40°39' W 074°10'2 4.0
2017-Nov-15 05:59N 40°38' W 074°07'0 0.0
2017-Nov-15 05:29N 40°38' W 074°07'0 0.0
2017-Nov-15 04:59N 40°38' W 074°07'0 0.0
2017-Nov-15 04:29N 40°38' W 074°07'0 0.0
2017-Nov-15 03:56N 40°38' W 074°07'0 0.0
2017-Nov-15 03:23N 40°38' W 074°07'1 1.8
2017-Nov-15 02:59N 40°39' W 074°07'3 7.2
2017-Nov-15 02:30N 40°39' W 074°02'1 2.7
2017-Nov-15 01:59N 40°40' W 074°00'2 3.9
2017-Nov-15 01:30N 40°39' W 074°02'2 4.5
2017-Nov-15 00:58N 40°40' W 074°05'0 0.0
2017-Nov-15 00:28N 40°40' W 074°05'0 0.0
2017-Nov-14 23:58N 40°40' W 074°05'0 0.0
2017-Nov-14 23:28N 40°40' W 074°05'0 0.7
2017-Nov-14 23:00N 40°40' W 074°05'0 0.6
2017-Nov-14 22:30N 40°40' W 074°04'2 3.8
2017-Nov-14 22:00N 40°39' W 074°06'1 1.2
2017-Nov-14 21:29N 40°39' W 074°07'0 0.0
2017-Nov-14 20:56N 40°39' W 074°07'1 2.1
2017-Nov-14 20:28N 40°39' W 074°06'0 0.0
2017-Nov-14 19:58N 40°39' W 074°06'2 5.0
2017-Nov-14 19:30N 40°39' W 074°09'2 3.5
2017-Nov-14 19:00N 40°41' W 074°09'0 0.1
2017-Nov-14 18:27N 40°41' W 074°09'1 2.1
2017-Nov-14 18:01N 40°40' W 074°08'2 3.7
2017-Nov-14 17:31N 40°39' W 074°07'0 0.3
2017-Nov-14 17:00N 40°39' W 074°06'1 1.1
2017-Nov-14 16:29N 40°39' W 074°06'0 0.0
2017-Nov-14 15:59N 40°39' W 074°06'0 0.0
2017-Nov-14 15:26N 40°39' W 074°06'2 5.0
2017-Nov-14 15:01N 40°38' W 074°09'1 2.5
2017-Nov-14 14:30N 40°40' W 074°09'0 0.7
2017-Nov-14 14:00N 40°39' W 074°09'2 3.5
2017-Nov-14 13:30N 40°39' W 074°06'3 6.2
2017-Nov-14 13:01N 40°40' W 074°03'1 2.2
2017-Nov-14 12:31N 40°40' W 074°01'1 1.9
2017-Nov-14 11:59N 40°40' W 074°00'0 0.0
2017-Nov-14 11:29N 40°40' W 074°00'1 1.3
2017-Nov-14 11:00N 40°40' W 074°01'4 6.7
2017-Nov-14 10:26N 40°39' W 074°06'0 0.0
2017-Nov-14 09:56N 40°39' W 074°06'0 0.0
2017-Nov-14 09:26N 40°39' W 074°06'0 0.0
2017-Nov-14 08:59N 40°39' W 074°06'0 0.0
2017-Nov-14 08:29N 40°39' W 074°06'0 0.0
2017-Nov-14 07:59N 40°39' W 074°06'0 0.0
2017-Nov-14 07:29N 40°39' W 074°06'0 0.0
2017-Nov-14 06:59N 40°39' W 074°06'0 0.0
2017-Nov-14 06:29N 40°39' W 074°06'0 0.0
2017-Nov-14 05:59N 40°39' W 074°06'0 0.0
2017-Nov-14 05:29N 40°39' W 074°06'0 0.8
2017-Nov-14 05:01N 40°39' W 074°06'0 0.4
2017-Nov-14 04:30N 40°39' W 074°06'1 1.2
2017-Nov-14 03:55N 40°38' W 074°07'0 0.0
2017-Nov-14 03:25N 40°38' W 074°07'0 0.0
2017-Nov-14 02:55N 40°38' W 074°07'0 0.0
2017-Nov-14 02:25N 40°38' W 074°07'0 0.0
2017-Nov-14 01:55N 40°38' W 074°07'0 0.0
2017-Nov-14 01:13N 40°38' W 074°07'0 0.0
2017-Nov-14 00:55N 40°38' W 074°07'0 0.0
2017-Nov-14 00:25N 40°38' W 074°07'0 0.0
2017-Nov-13 23:55N 40°38' W 074°07'2 3.5
2017-Nov-13 23:30N 40°39' W 074°09'0 0.8
2017-Nov-13 22:56N 40°40' W 074°09'0 0.0
2017-Nov-13 22:29N 40°40' W 074°09'0 0.5
2017-Nov-13 22:00N 40°40' W 074°09'5 0.3
2017-Nov-13 02:00N 40°39' W 074°02'0 0.8
2017-Nov-13 01:31N 40°39' W 074°02'1 2.7
2017-Nov-13 01:00N 40°40' W 074°00'0 0.0
2017-Nov-13 00:30N 40°40' W 074°00'0 0.0
2017-Nov-13 00:00N 40°40' W 074°00'0 0.0
2017-Nov-12 23:30N 40°40' W 074°00'0 0.0
2017-Nov-12 23:00N 40°40' W 074°00'0 0.0
2017-Nov-12 22:30N 40°40' W 074°00'3 6.8
2017-Nov-12 22:00N 40°38' W 074°04'0 0.1
2017-Nov-12 21:30N 40°38' W 074°04'1 2.1
2017-Nov-12 21:00N 40°39' W 074°03'3 5.0
2017-Nov-12 20:28N 40°41' W 074°01'0 0.1
2017-Nov-12 20:00N 40°41' W 074°01'1 1.3
2017-Nov-12 19:30N 40°42' W 074°00'4 7.3
2017-Nov-12 19:00N 40°45' W 074°01'1 2.0
2017-Nov-12 18:26N 40°46' W 073°60'0 0.0
2017-Nov-12 17:59N 40°46' W 073°60'0 0.0
2017-Nov-12 17:29N 40°46' W 073°60'0 0.0
2017-Nov-12 16:56N 40°46' W 073°60'0 0.0
2017-Nov-12 16:29N 40°46' W 073°60'0 0.0
2017-Nov-12 15:59N 40°46' W 073°60'0 0.0
2017-Nov-12 15:30N 40°46' W 073°60'0 0.1
2017-Nov-12 14:59N 40°46' W 073°60'0 0.0
2017-Nov-12 14:29N 40°46' W 073°60'0 0.0
2017-Nov-12 13:59N 40°46' W 073°60'0 0.0
2017-Nov-12 13:29N 40°46' W 073°60'0 0.0
2017-Nov-12 12:59N 40°46' W 073°60'0 0.3
2017-Nov-12 12:29N 40°46' W 074°00'2 3.5
2017-Nov-12 12:00N 40°45' W 074°01'4 7.5
2017-Nov-12 11:30N 40°41' W 074°02'3 5.1
2017-Nov-12 10:58N 40°39' W 074°05'0 0.0
2017-Nov-12 10:28N 40°39' W 074°05'0 0.0
2017-Nov-12 09:58N 40°39' W 074°05'0 0.0
2017-Nov-12 09:28N 40°39' W 074°05'0 0.0
2017-Nov-12 08:58N 40°39' W 074°05'0 0.0
2017-Nov-12 08:30N 40°39' W 074°05'1 1.7
2017-Nov-12 07:58N 40°40' W 074°05'0 0.0
2017-Nov-12 07:28N 40°40' W 074°05'0 0.0
2017-Nov-12 06:58N 40°40' W 074°05'0 0.0
2017-Nov-12 06:28N 40°40' W 074°05'0 0.0
2017-Nov-12 05:58N 40°40' W 074°05'0 0.0
2017-Nov-12 05:28N 40°40' W 074°05'0 0.0
2017-Nov-12 04:58N 40°40' W 074°05'0 0.0
2017-Nov-12 04:28N 40°40' W 074°05'0 0.0
2017-Nov-12 03:59N 40°40' W 074°05'1 2.5
2017-Nov-12 03:29N 40°39' W 074°05'0 0.0
2017-Nov-12 02:56N 40°39' W 074°05'0 0.0
2017-Nov-12 02:29N 40°39' W 074°05'0 0.0
2017-Nov-12 01:59N 40°39' W 074°05'0 0.0
2017-Nov-12 01:30N 40°39' W 074°05'0 0.7
2017-Nov-12 00:58N 40°39' W 074°06'0 0.0
2017-Nov-12 00:25N 40°39' W 074°06'0 0.0
2017-Nov-11 23:58N 40°39' W 074°06'0 0.0
2017-Nov-11 23:29N 40°39' W 074°06'1 1.5
2017-Nov-11 22:59N 40°39' W 074°05'1 1.9
2017-Nov-11 22:27N 40°40' W 074°04'0 0.0
2017-Nov-11 22:00N 40°40' W 074°04'0 0.0
2017-Nov-11 21:30N 40°40' W 074°04'1 2.1
2017-Nov-11 21:00N 40°40' W 074°03'1 2.8
2017-Nov-11 20:28N 40°39' W 074°03'1 1.2
2017-Nov-11 20:00N 40°39' W 074°03'2 3.1
2017-Nov-11 19:30N 40°39' W 074°05'2 4.6
2017-Nov-11 19:00N 40°40' W 074°03'0 0.1
2017-Nov-11 18:30N 40°40' W 074°03'1 2.2
2017-Nov-11 18:00N 40°40' W 074°04'2 3.6
2017-Nov-11 17:29N 40°38' W 074°03'0 0.7
2017-Nov-11 16:58N 40°39' W 074°03'1 2.3
2017-Nov-11 16:30N 40°39' W 074°02'2 4.3
2017-Nov-11 16:00N 40°41' W 074°00'0 0.3
2017-Nov-11 15:29N 40°41' W 074°00'1 2.5
2017-Nov-11 15:00N 40°41' W 074°01'1 2.0
2017-Nov-11 14:30N 40°40' W 074°00'0 0.0
2017-Nov-11 14:00N 40°40' W 074°00'2 4.1
2017-Nov-11 13:31N 40°40' W 074°03'1 2.0
2017-Nov-11 13:01N 40°40' W 074°04'1 1.7
2017-Nov-11 12:30N 40°40' W 074°05'0 0.5
2017-Nov-11 11:58N 40°40' W 074°04'1 3.0
2017-Nov-11 11:30N 40°39' W 074°05'1 1.3
2017-Nov-11 11:00N 40°39' W 074°06'4 8.6
2017-Nov-11 10:30N 40°40' W 074°01'0 0.5
2017-Nov-11 09:59N 40°40' W 074°00'0 0.0
2017-Nov-11 09:29N 40°40' W 074°00'0 0.0
2017-Nov-11 08:59N 40°40' W 074°01'0 0.0
2017-Nov-11 08:29N 40°40' W 074°01'0 0.3
2017-Nov-11 08:01N 40°40' W 074°01'3 6.3
2017-Nov-11 07:30N 40°43' W 073°59'4 7.9
2017-Nov-11 07:00N 40°46' W 073°57'3 6.7
2017-Nov-11 06:30N 40°48' W 073°53'3 5.3
2017-Nov-11 05:53N 40°48' W 073°48'0 0.0
2017-Nov-11 04:47N 40°48' W 073°48'0 0.0
2017-Nov-11 04:29N 40°48' W 073°48'0 0.0
2017-Nov-11 03:47N 40°48' W 073°48'0 0.1
2017-Nov-11 03:29N 40°48' W 073°48'0 0.0
2017-Nov-11 02:59N 40°48' W 073°48'0 0.0
2017-Nov-11 02:29N 40°48' W 073°48'0 0.0
2017-Nov-11 01:56N 40°48' W 073°48'0 0.0
2017-Nov-10 20:23N 40°48' W 073°48'0 0.1
2017-Nov-10 19:56N 40°48' W 073°48'0 0.0
2017-Nov-10 19:20N 40°48' W 073°48'0 0.0
2017-Nov-10 18:53N 40°48' W 073°48'0 0.0
2017-Nov-10 17:11N 40°48' W 073°48'0 0.0
2017-Nov-10 16:59N 40°48' W 073°48'0 0.0
2017-Nov-10 15:59N 40°48' W 073°48'0 0.0
2017-Nov-10 15:26N 40°48' W 073°48'0 0.1
2017-Nov-10 14:59N 40°48' W 073°48'0 0.1
2017-Nov-10 14:20N 40°48' W 073°48'2 6.6
2017-Nov-10 14:00N 40°48' W 073°51'3 6.3
2017-Nov-10 13:30N 40°47' W 073°55'3 5.2
2017-Nov-10 13:00N 40°45' W 073°58'3 5.5
2017-Nov-10 12:30N 40°43' W 073°59'3 5.1
2017-Nov-10 12:00N 40°41' W 074°01'3 5.0
2017-Nov-10 11:30N 40°39' W 074°03'4 7.6
2017-Nov-10 11:00N 40°39' W 074°08'2 4.9
2017-Nov-10 10:31N 40°38' W 074°11'2 4.7
2017-Nov-10 10:00N 40°36' W 074°12'1 2.2
2017-Nov-10 09:21N 40°38' W 074°12'0 1.3
2017-Nov-10 09:00N 40°38' W 074°12'4 7.9
2017-Nov-10 08:30N 40°39' W 074°07'4 7.3
2017-Nov-10 08:00N 40°40' W 074°03'2 3.9
2017-Nov-10 07:28N 40°41' W 074°00'0 0.2
2017-Nov-10 06:58N 40°41' W 074°00'1 2.9
2017-Nov-10 06:28N 40°40' W 074°00'1 2.1
2017-Nov-10 06:00N 40°39' W 074°01'1 1.7
2017-Nov-10 05:30N 40°39' W 074°02'1 2.9
2017-Nov-10 05:00N 40°40' W 074°01'0 0.7
2017-Nov-10 04:31N 40°40' W 074°00'1 0.9
2017-Nov-10 03:59N 40°40' W 074°01'2 4.5
2017-Nov-10 03:30N 40°39' W 074°04'4 7.6
2017-Nov-10 03:00N 40°39' W 074°08'3 5.2
2017-Nov-10 02:30N 40°41' W 074°09'0 0.5
2017-Nov-10 02:00N 40°41' W 074°09'1 0.9
2017-Nov-10 01:24N 40°41' W 074°09'0 0.0
2017-Nov-10 01:00N 40°41' W 074°09'0 0.0
2017-Nov-10 00:30N 40°41' W 074°09'0 0.0
2017-Nov-09 23:57N 40°41' W 074°09'0 0.0
2017-Nov-09 23:30N 40°41' W 074°09'0 0.0
2017-Nov-09 23:00N 40°41' W 074°09'3 5.5
2017-Nov-09 22:30N 40°39' W 074°11'3 5.5
2017-Nov-09 21:59N 40°36' W 074°12'0 0.8
2017-Nov-09 21:30N 40°36' W 074°12'3 5.8
2017-Nov-09 21:00N 40°39' W 074°11'3 5.5
2017-Nov-09 20:30N 40°40' W 074°08'1 1.8
2017-Nov-09 20:01N 40°39' W 074°09'3 5.0
2017-Nov-09 19:30N 40°39' W 074°05'3 6.9
2017-Nov-09 19:00N 40°41' W 074°02'3 6.9
2017-Nov-09 18:30N 40°43' W 073°58'3 6.6
2017-Nov-09 18:00N 40°46' W 073°57'3 5.1
2017-Nov-09 17:30N 40°48' W 073°54'2 4.4
2017-Nov-09 17:00N 40°48' W 073°51'3 6.5
2017-Nov-09 16:30N 40°48' W 073°47'4 7.7
2017-Nov-09 15:57N 40°52' W 073°45'4 5.3
2017-Nov-09 15:16N 40°54' W 073°41'8 4.6
2017-Nov-09 13:35N 40°48' W 073°47'1 8.3
2017-Nov-09 13:30N 40°48' W 073°48'4 7.9
2017-Nov-09 12:59N 40°48' W 073°54'3 6.5
2017-Nov-09 12:30N 40°46' W 073°57'3 5.5
2017-Nov-09 12:01N 40°44' W 073°58'3 5.2
2017-Nov-09 11:31N 40°42' W 074°00'3 5.6
2017-Nov-09 11:00N 40°40' W 074°03'3 5.6
2017-Nov-09 10:29N 40°39' W 074°07'0 0.2
2017-Nov-09 10:01N 40°39' W 074°07'0 0.0
2017-Nov-09 09:30N 40°39' W 074°07'1 2.9
2017-Nov-09 09:00N 40°39' W 074°05'4 7.2
2017-Nov-09 08:30N 40°40' W 074°00'0 0.0
2017-Nov-09 08:00N 40°40' W 074°00'0 0.5
2017-Nov-09 07:30N 40°40' W 074°00'1 1.8
2017-Nov-09 07:00N 40°39' W 074°01'4 8.1
2017-Nov-09 06:30N 40°39' W 074°07'0 0.1
2017-Nov-09 06:00N 40°39' W 074°07'2 4.9
2017-Nov-09 05:31N 40°40' W 074°04'3 6.1
2017-Nov-09 05:00N 40°41' W 074°00'3 6.2
2017-Nov-09 04:30N 40°40' W 074°04'4 8.0
2017-Nov-09 04:00N 40°39' W 074°09'2 4.9
2017-Nov-09 03:30N 40°41' W 074°08'1 1.6
2017-Nov-09 03:00N 40°41' W 074°08'0 0.4
2017-Nov-09 02:30N 40°40' W 074°08'2 3.7
2017-Nov-09 02:01N 40°39' W 074°09'3 5.8
2017-Nov-09 01:30N 40°39' W 074°05'0 0.0
2017-Nov-09 01:00N 40°39' W 074°05'0 0.0
2017-Nov-09 00:30N 40°39' W 074°05'0 0.0
2017-Nov-09 00:01N 40°39' W 074°05'1 2.4
2017-Nov-08 23:31N 40°39' W 074°07'0 0.2
2017-Nov-08 23:00N 40°39' W 074°07'3 6.1
2017-Nov-08 22:31N 40°40' W 074°03'0 0.2
2017-Nov-08 22:00N 40°40' W 074°03'2 3.8
2017-Nov-08 21:30N 40°40' W 074°00'0 0.0
2017-Nov-08 21:00N 40°40' W 074°00'0 0.0
2017-Nov-08 20:30N 40°40' W 074°00'0 0.0
2017-Nov-08 20:00N 40°40' W 074°00'0 0.0
2017-Nov-08 19:30N 40°40' W 074°00'0 0.0
2017-Nov-08 19:00N 40°40' W 074°00'0 0.0
2017-Nov-08 18:30N 40°40' W 074°00'0 0.0
2017-Nov-08 18:00N 40°40' W 074°00'0 0.0
2017-Nov-08 17:30N 40°40' W 074°00'0 0.0
2017-Nov-08 17:01N 40°40' W 074°00'0 0.6
2017-Nov-08 16:30N 40°40' W 074°00'0 0.0
2017-Nov-08 16:00N 40°40' W 074°00'0 0.0
2017-Nov-08 15:30N 40°40' W 074°00'0 0.0
2017-Nov-08 15:00N 40°40' W 074°00'0 0.0
2017-Nov-08 14:30N 40°40' W 074°00'2 4.7
2017-Nov-08 14:00N 40°42' W 073°59'4 8.4
2017-Nov-08 13:30N 40°46' W 073°57'4 7.5
2017-Nov-08 12:59N 40°48' W 073°52'  

Dump ship's entire track history